sensor_id;sensor_type;location;lat;lon;timestamp;P1;durP1;ratioP1;P2;durP2;ratioP2
72524;SDS011;60547;48.502;8.996;2022-12-11T00:00:43;9.18;;;5.18;;
72524;SDS011;60547;48.502;8.996;2022-12-11T00:03:08;10.05;;;4.80;;
72524;SDS011;60547;48.502;8.996;2022-12-11T00:05:37;9.77;;;5.03;;
72524;SDS011;60547;48.502;8.996;2022-12-11T00:08:03;10.68;;;4.90;;
72524;SDS011;60547;48.502;8.996;2022-12-11T00:10:29;8.95;;;4.18;;
72524;SDS011;60547;48.502;8.996;2022-12-11T00:12:54;8.65;;;4.85;;
72524;SDS011;60547;48.502;8.996;2022-12-11T00:15:19;10.48;;;4.80;;
72524;SDS011;60547;48.502;8.996;2022-12-11T00:17:45;8.82;;;4.75;;
72524;SDS011;60547;48.502;8.996;2022-12-11T00:20:10;10.18;;;5.20;;
72524;SDS011;60547;48.502;8.996;2022-12-11T00:22:36;9.70;;;5.28;;
72524;SDS011;60547;48.502;8.996;2022-12-11T00:25:01;10.75;;;4.90;;
72524;SDS011;60547;48.502;8.996;2022-12-11T00:27:27;9.18;;;4.78;;
72524;SDS011;60547;48.502;8.996;2022-12-11T00:29:52;12.70;;;5.28;;
72524;SDS011;60547;48.502;8.996;2022-12-11T00:32:17;8.60;;;4.78;;
72524;SDS011;60547;48.502;8.996;2022-12-11T00:34:43;11.32;;;5.47;;
72524;SDS011;60547;48.502;8.996;2022-12-11T00:37:08;10.88;;;5.70;;
72524;SDS011;60547;48.502;8.996;2022-12-11T00:39:35;10.65;;;5.53;;
72524;SDS011;60547;48.502;8.996;2022-12-11T00:42:01;9.90;;;5.43;;
72524;SDS011;60547;48.502;8.996;2022-12-11T00:44:26;10.38;;;5.47;;
72524;SDS011;60547;48.502;8.996;2022-12-11T00:46:52;9.25;;;4.68;;
72524;SDS011;60547;48.502;8.996;2022-12-11T00:49:17;10.98;;;4.75;;
72524;SDS011;60547;48.502;8.996;2022-12-11T00:51:43;10.73;;;5.32;;
72524;SDS011;60547;48.502;8.996;2022-12-11T00:54:08;10.18;;;4.90;;
72524;SDS011;60547;48.502;8.996;2022-12-11T00:56:34;9.20;;;4.55;;
72524;SDS011;60547;48.502;8.996;2022-12-11T00:58:59;8.55;;;4.65;;
72524;SDS011;60547;48.502;8.996;2022-12-11T01:01:24;9.90;;;5.32;;
72524;SDS011;60547;48.502;8.996;2022-12-11T01:03:50;10.75;;;4.97;;
72524;SDS011;60547;48.502;8.996;2022-12-11T01:06:17;9.38;;;4.70;;
72524;SDS011;60547;48.502;8.996;2022-12-11T01:08:46;10.30;;;5.15;;
72524;SDS011;60547;48.502;8.996;2022-12-11T01:11:13;8.50;;;4.55;;
72524;SDS011;60547;48.502;8.996;2022-12-11T01:13:40;9.80;;;4.35;;
72524;SDS011;60547;48.502;8.996;2022-12-11T01:18:37;9.93;;;5.13;;
72524;SDS011;60547;48.502;8.996;2022-12-11T01:21:06;12.25;;;6.32;;
72524;SDS011;60547;48.502;8.996;2022-12-11T01:23:33;10.95;;;5.15;;
72524;SDS011;60547;48.502;8.996;2022-12-11T01:26:09;10.07;;;5.57;;
72524;SDS011;60547;48.502;8.996;2022-12-11T01:28:37;10.32;;;5.60;;
72524;SDS011;60547;48.502;8.996;2022-12-11T01:31:06;11.60;;;5.90;;
72524;SDS011;60547;48.502;8.996;2022-12-11T01:33:32;10.65;;;5.50;;
72524;SDS011;60547;48.502;8.996;2022-12-11T01:35:58;9.30;;;5.00;;
72524;SDS011;60547;48.502;8.996;2022-12-11T01:38:23;11.02;;;5.97;;
72524;SDS011;60547;48.502;8.996;2022-12-11T01:40:49;11.50;;;5.55;;
72524;SDS011;60547;48.502;8.996;2022-12-11T01:43:15;11.05;;;5.60;;
72524;SDS011;60547;48.502;8.996;2022-12-11T01:45:41;9.43;;;5.63;;
72524;SDS011;60547;48.502;8.996;2022-12-11T01:48:13;11.57;;;6.20;;
72524;SDS011;60547;48.502;8.996;2022-12-11T01:50:47;10.80;;;5.68;;
72524;SDS011;60547;48.502;8.996;2022-12-11T01:53:25;13.65;;;7.97;;
72524;SDS011;60547;48.502;8.996;2022-12-11T01:55:54;12.70;;;6.03;;
72524;SDS011;60547;48.502;8.996;2022-12-11T01:58:23;12.23;;;6.72;;
72524;SDS011;60547;48.502;8.996;2022-12-11T02:00:53;14.80;;;6.22;;
72524;SDS011;60547;48.502;8.996;2022-12-11T02:03:20;13.07;;;6.95;;
72524;SDS011;60547;48.502;8.996;2022-12-11T02:05:46;13.30;;;6.88;;
72524;SDS011;60547;48.502;8.996;2022-12-11T02:08:11;13.57;;;6.95;;
72524;SDS011;60547;48.502;8.996;2022-12-11T02:16:25;13.02;;;7.07;;
72524;SDS011;60547;48.502;8.996;2022-12-11T02:19:02;14.63;;;7.07;;
72524;SDS011;60547;48.502;8.996;2022-12-11T02:21:39;14.73;;;7.38;;
72524;SDS011;60547;48.502;8.996;2022-12-11T02:27:20;14.43;;;6.47;;
72524;SDS011;60547;48.502;8.996;2022-12-11T02:29:52;11.88;;;6.07;;
72524;SDS011;60547;48.502;8.996;2022-12-11T02:32:26;12.70;;;6.53;;
72524;SDS011;60547;48.502;8.996;2022-12-11T02:35:00;12.43;;;6.90;;
72524;SDS011;60547;48.502;8.996;2022-12-11T02:37:28;13.13;;;7.85;;
72524;SDS011;60547;48.502;8.996;2022-12-11T02:39:55;12.52;;;6.85;;
72524;SDS011;60547;48.502;8.996;2022-12-11T02:42:22;15.07;;;6.97;;
72524;SDS011;60547;48.502;8.996;2022-12-11T02:47:18;12.35;;;6.60;;
72524;SDS011;60547;48.502;8.996;2022-12-11T02:49:46;14.25;;;8.18;;
72524;SDS011;60547;48.502;8.996;2022-12-11T02:52:15;15.20;;;8.30;;
72524;SDS011;60547;48.502;8.996;2022-12-11T02:54:45;13.57;;;7.32;;
72524;SDS011;60547;48.502;8.996;2022-12-11T02:57:16;15.45;;;8.30;;
72524;SDS011;60547;48.502;8.996;2022-12-11T02:59:49;19.75;;;8.95;;
72524;SDS011;60547;48.502;8.996;2022-12-11T03:02:15;18.35;;;9.23;;
72524;SDS011;60547;48.502;8.996;2022-12-11T03:04:41;16.00;;;8.50;;
72524;SDS011;60547;48.502;8.996;2022-12-11T03:07:09;17.75;;;9.80;;
72524;SDS011;60547;48.502;8.996;2022-12-11T03:09:39;15.40;;;9.23;;
72524;SDS011;60547;48.502;8.996;2022-12-11T03:12:09;15.65;;;9.10;;
72524;SDS011;60547;48.502;8.996;2022-12-11T03:14:38;18.08;;;8.57;;
72524;SDS011;60547;48.502;8.996;2022-12-11T03:17:24;16.27;;;8.63;;
72524;SDS011;60547;48.502;8.996;2022-12-11T03:23:03;16.75;;;8.70;;
72524;SDS011;60547;48.502;8.996;2022-12-11T03:25:44;14.93;;;8.18;;
72524;SDS011;60547;48.502;8.996;2022-12-11T03:31:23;13.98;;;7.20;;
72524;SDS011;60547;48.502;8.996;2022-12-11T03:34:02;17.58;;;8.13;;
72524;SDS011;60547;48.502;8.996;2022-12-11T03:36:33;14.63;;;8.05;;
72524;SDS011;60547;48.502;8.996;2022-12-11T03:39:06;15.23;;;7.78;;
72524;SDS011;60547;48.502;8.996;2022-12-11T03:41:39;17.35;;;8.25;;
72524;SDS011;60547;48.502;8.996;2022-12-11T03:44:08;17.25;;;8.38;;
72524;SDS011;60547;48.502;8.996;2022-12-11T03:46:35;15.60;;;8.10;;
72524;SDS011;60547;48.502;8.996;2022-12-11T03:49:07;14.13;;;7.35;;
72524;SDS011;60547;48.502;8.996;2022-12-11T03:51:40;14.43;;;7.53;;
72524;SDS011;60547;48.502;8.996;2022-12-11T03:54:09;16.10;;;8.65;;
72524;SDS011;60547;48.502;8.996;2022-12-11T03:56:35;14.70;;;8.00;;
72524;SDS011;60547;48.502;8.996;2022-12-11T03:59:02;15.48;;;7.68;;
72524;SDS011;60547;48.502;8.996;2022-12-11T04:01:28;14.43;;;7.35;;
72524;SDS011;60547;48.502;8.996;2022-12-11T04:03:53;13.32;;;6.85;;
72524;SDS011;60547;48.502;8.996;2022-12-11T04:06:19;15.38;;;8.50;;
72524;SDS011;60547;48.502;8.996;2022-12-11T04:08:44;13.18;;;7.30;;
72524;SDS011;60547;48.502;8.996;2022-12-11T04:11:10;15.20;;;7.32;;
72524;SDS011;60547;48.502;8.996;2022-12-11T04:13:54;13.70;;;7.30;;
72524;SDS011;60547;48.502;8.996;2022-12-11T04:16:37;13.60;;;7.72;;
72524;SDS011;60547;48.502;8.996;2022-12-11T04:19:03;14.23;;;7.75;;
72524;SDS011;60547;48.502;8.996;2022-12-11T04:21:47;16.35;;;7.40;;
72524;SDS011;60547;48.502;8.996;2022-12-11T04:24:31;14.77;;;8.23;;
72524;SDS011;60547;48.502;8.996;2022-12-11T04:26:57;15.82;;;7.57;;
72524;SDS011;60547;48.502;8.996;2022-12-11T04:29:23;17.00;;;7.95;;
72524;SDS011;60547;48.502;8.996;2022-12-11T04:31:48;14.32;;;7.38;;
72524;SDS011;60547;48.502;8.996;2022-12-11T04:34:14;15.75;;;8.55;;
72524;SDS011;60547;48.502;8.996;2022-12-11T04:36:40;15.07;;;8.15;;
72524;SDS011;60547;48.502;8.996;2022-12-11T04:39:06;15.38;;;8.13;;
72524;SDS011;60547;48.502;8.996;2022-12-11T04:41:32;14.20;;;7.35;;
72524;SDS011;60547;48.502;8.996;2022-12-11T04:43:58;15.40;;;8.02;;
72524;SDS011;60547;48.502;8.996;2022-12-11T04:46:23;17.27;;;7.30;;
72524;SDS011;60547;48.502;8.996;2022-12-11T04:48:50;13.90;;;7.47;;
72524;SDS011;60547;48.502;8.996;2022-12-11T04:51:16;15.93;;;7.45;;
72524;SDS011;60547;48.502;8.996;2022-12-11T04:53:43;15.98;;;8.13;;
72524;SDS011;60547;48.502;8.996;2022-12-11T04:56:09;15.55;;;7.30;;
72524;SDS011;60547;48.502;8.996;2022-12-11T04:58:37;15.93;;;7.60;;
72524;SDS011;60547;48.502;8.996;2022-12-11T05:01:09;14.88;;;7.35;;
72524;SDS011;60547;48.502;8.996;2022-12-11T05:03:36;14.23;;;7.65;;
72524;SDS011;60547;48.502;8.996;2022-12-11T05:06:02;14.27;;;7.53;;
72524;SDS011;60547;48.502;8.996;2022-12-11T05:08:28;14.18;;;7.25;;
72524;SDS011;60547;48.502;8.996;2022-12-11T05:10:57;15.07;;;6.90;;
72524;SDS011;60547;48.502;8.996;2022-12-11T05:13:25;15.23;;;7.38;;
72524;SDS011;60547;48.502;8.996;2022-12-11T05:15:51;15.50;;;7.88;;
72524;SDS011;60547;48.502;8.996;2022-12-11T05:18:17;14.60;;;7.40;;
72524;SDS011;60547;48.502;8.996;2022-12-11T05:20:43;15.45;;;7.45;;
72524;SDS011;60547;48.502;8.996;2022-12-11T05:23:08;15.10;;;7.03;;
72524;SDS011;60547;48.502;8.996;2022-12-11T05:25:33;12.45;;;6.43;;
72524;SDS011;60547;48.502;8.996;2022-12-11T05:27:59;13.98;;;7.13;;
72524;SDS011;60547;48.502;8.996;2022-12-11T05:30:24;17.10;;;7.82;;
72524;SDS011;60547;48.502;8.996;2022-12-11T05:32:50;15.75;;;7.93;;
72524;SDS011;60547;48.502;8.996;2022-12-11T05:35:15;15.77;;;7.20;;
72524;SDS011;60547;48.502;8.996;2022-12-11T05:37:41;16.35;;;7.30;;
72524;SDS011;60547;48.502;8.996;2022-12-11T05:40:06;13.43;;;7.40;;
72524;SDS011;60547;48.502;8.996;2022-12-11T05:42:33;15.73;;;7.55;;
72524;SDS011;60547;48.502;8.996;2022-12-11T05:44:59;13.75;;;7.05;;
72524;SDS011;60547;48.502;8.996;2022-12-11T05:47:24;16.50;;;8.32;;
72524;SDS011;60547;48.502;8.996;2022-12-11T05:49:50;15.57;;;8.10;;
72524;SDS011;60547;48.502;8.996;2022-12-11T05:52:15;16.98;;;8.30;;
72524;SDS011;60547;48.502;8.996;2022-12-11T05:54:41;15.90;;;7.95;;
72524;SDS011;60547;48.502;8.996;2022-12-11T05:57:07;13.95;;;6.93;;
72524;SDS011;60547;48.502;8.996;2022-12-11T05:59:32;15.27;;;7.70;;
72524;SDS011;60547;48.502;8.996;2022-12-11T06:01:58;15.85;;;7.38;;
72524;SDS011;60547;48.502;8.996;2022-12-11T06:04:23;16.27;;;7.82;;
72524;SDS011;60547;48.502;8.996;2022-12-11T06:06:49;15.60;;;7.38;;
72524;SDS011;60547;48.502;8.996;2022-12-11T06:09:15;14.82;;;8.27;;
72524;SDS011;60547;48.502;8.996;2022-12-11T06:11:41;13.45;;;7.15;;
72524;SDS011;60547;48.502;8.996;2022-12-11T06:14:07;14.68;;;7.68;;
72524;SDS011;60547;48.502;8.996;2022-12-11T06:16:35;15.25;;;7.10;;
72524;SDS011;60547;48.502;8.996;2022-12-11T06:19:00;14.82;;;8.05;;
72524;SDS011;60547;48.502;8.996;2022-12-11T06:21:26;16.50;;;7.43;;
72524;SDS011;60547;48.502;8.996;2022-12-11T06:23:55;13.07;;;7.38;;
72524;SDS011;60547;48.502;8.996;2022-12-11T06:26:22;14.50;;;7.25;;
72524;SDS011;60547;48.502;8.996;2022-12-11T06:28:48;16.48;;;7.78;;
72524;SDS011;60547;48.502;8.996;2022-12-11T06:31:14;17.48;;;7.93;;
72524;SDS011;60547;48.502;8.996;2022-12-11T06:33:40;15.55;;;8.45;;
72524;SDS011;60547;48.502;8.996;2022-12-11T06:36:06;13.65;;;7.72;;
72524;SDS011;60547;48.502;8.996;2022-12-11T06:38:34;13.07;;;7.13;;
72524;SDS011;60547;48.502;8.996;2022-12-11T06:41:01;14.80;;;7.22;;
72524;SDS011;60547;48.502;8.996;2022-12-11T06:43:29;14.35;;;7.38;;
72524;SDS011;60547;48.502;8.996;2022-12-11T06:45:55;15.15;;;7.72;;
72524;SDS011;60547;48.502;8.996;2022-12-11T06:48:21;17.02;;;8.35;;
72524;SDS011;60547;48.502;8.996;2022-12-11T06:50:47;15.43;;;7.82;;
72524;SDS011;60547;48.502;8.996;2022-12-11T06:53:12;15.88;;;7.55;;
72524;SDS011;60547;48.502;8.996;2022-12-11T06:55:39;14.18;;;7.25;;
72524;SDS011;60547;48.502;8.996;2022-12-11T06:58:04;13.07;;;6.95;;
72524;SDS011;60547;48.502;8.996;2022-12-11T07:00:30;16.38;;;8.13;;
72524;SDS011;60547;48.502;8.996;2022-12-11T07:02:55;15.93;;;7.63;;
72524;SDS011;60547;48.502;8.996;2022-12-11T07:05:21;15.50;;;8.32;;
72524;SDS011;60547;48.502;8.996;2022-12-11T07:07:48;16.73;;;8.43;;
72524;SDS011;60547;48.502;8.996;2022-12-11T07:10:13;14.38;;;6.88;;
72524;SDS011;60547;48.502;8.996;2022-12-11T07:12:39;15.70;;;7.75;;
72524;SDS011;60547;48.502;8.996;2022-12-11T07:15:05;19.25;;;8.32;;
72524;SDS011;60547;48.502;8.996;2022-12-11T07:17:30;13.73;;;7.65;;
72524;SDS011;60547;48.502;8.996;2022-12-11T07:19:56;14.63;;;7.20;;
72524;SDS011;60547;48.502;8.996;2022-12-11T07:22:22;15.10;;;7.15;;
72524;SDS011;60547;48.502;8.996;2022-12-11T07:24:47;15.05;;;8.88;;
72524;SDS011;60547;48.502;8.996;2022-12-11T07:27:12;18.30;;;8.50;;
72524;SDS011;60547;48.502;8.996;2022-12-11T07:29:38;14.35;;;7.60;;
72524;SDS011;60547;48.502;8.996;2022-12-11T07:32:03;14.57;;;7.65;;
72524;SDS011;60547;48.502;8.996;2022-12-11T07:34:29;14.27;;;6.65;;
72524;SDS011;60547;48.502;8.996;2022-12-11T07:36:55;17.08;;;8.63;;
72524;SDS011;60547;48.502;8.996;2022-12-11T07:39:20;17.75;;;8.50;;
72524;SDS011;60547;48.502;8.996;2022-12-11T07:41:45;16.50;;;8.07;;
72524;SDS011;60547;48.502;8.996;2022-12-11T07:44:11;17.58;;;9.20;;
72524;SDS011;60547;48.502;8.996;2022-12-11T07:46:37;18.20;;;8.80;;
72524;SDS011;60547;48.502;8.996;2022-12-11T07:49:04;19.00;;;9.13;;
72524;SDS011;60547;48.502;8.996;2022-12-11T07:51:31;20.45;;;11.95;;
72524;SDS011;60547;48.502;8.996;2022-12-11T07:54:03;17.40;;;10.30;;
72524;SDS011;60547;48.502;8.996;2022-12-11T07:56:32;21.73;;;10.77;;
72524;SDS011;60547;48.502;8.996;2022-12-11T07:58:58;16.50;;;9.13;;
72524;SDS011;60547;48.502;8.996;2022-12-11T08:01:26;17.52;;;8.88;;
72524;SDS011;60547;48.502;8.996;2022-12-11T08:03:53;17.02;;;9.25;;
72524;SDS011;60547;48.502;8.996;2022-12-11T08:06:23;14.73;;;8.38;;
72524;SDS011;60547;48.502;8.996;2022-12-11T08:08:54;16.38;;;8.27;;
72524;SDS011;60547;48.502;8.996;2022-12-11T08:11:20;22.35;;;10.18;;
72524;SDS011;60547;48.502;8.996;2022-12-11T08:13:46;19.80;;;10.43;;
72524;SDS011;60547;48.502;8.996;2022-12-11T08:16:12;19.35;;;10.43;;
72524;SDS011;60547;48.502;8.996;2022-12-11T08:18:40;22.42;;;11.02;;
72524;SDS011;60547;48.502;8.996;2022-12-11T08:21:07;16.33;;;8.45;;
72524;SDS011;60547;48.502;8.996;2022-12-11T08:23:34;19.50;;;9.13;;
72524;SDS011;60547;48.502;8.996;2022-12-11T08:26:03;17.80;;;9.43;;
72524;SDS011;60547;48.502;8.996;2022-12-11T08:28:29;15.52;;;8.60;;
72524;SDS011;60547;48.502;8.996;2022-12-11T08:30:55;17.40;;;8.60;;
72524;SDS011;60547;48.502;8.996;2022-12-11T08:33:24;17.58;;;9.70;;
72524;SDS011;60547;48.502;8.996;2022-12-11T08:35:53;20.20;;;9.70;;
72524;SDS011;60547;48.502;8.996;2022-12-11T08:38:25;20.52;;;10.98;;
72524;SDS011;60547;48.502;8.996;2022-12-11T08:40:54;20.77;;;10.75;;
72524;SDS011;60547;48.502;8.996;2022-12-11T08:43:25;16.75;;;8.98;;
72524;SDS011;60547;48.502;8.996;2022-12-11T08:46:00;18.00;;;9.30;;
72524;SDS011;60547;48.502;8.996;2022-12-11T08:48:26;18.52;;;9.65;;
72524;SDS011;60547;48.502;8.996;2022-12-11T08:50:52;18.33;;;9.05;;
72524;SDS011;60547;48.502;8.996;2022-12-11T08:53:22;16.13;;;8.38;;
72524;SDS011;60547;48.502;8.996;2022-12-11T08:55:47;18.75;;;10.40;;
72524;SDS011;60547;48.502;8.996;2022-12-11T08:58:13;19.52;;;9.40;;
72524;SDS011;60547;48.502;8.996;2022-12-11T09:00:38;19.52;;;9.30;;
72524;SDS011;60547;48.502;8.996;2022-12-11T09:03:04;17.80;;;8.73;;
72524;SDS011;60547;48.502;8.996;2022-12-11T09:05:29;18.50;;;8.75;;
72524;SDS011;60547;48.502;8.996;2022-12-11T09:07:55;17.30;;;8.30;;
72524;SDS011;60547;48.502;8.996;2022-12-11T09:10:22;17.88;;;9.23;;
72524;SDS011;60547;48.502;8.996;2022-12-11T09:12:47;15.65;;;8.30;;
72524;SDS011;60547;48.502;8.996;2022-12-11T09:15:13;17.10;;;9.50;;
72524;SDS011;60547;48.502;8.996;2022-12-11T09:17:39;17.42;;;8.15;;
72524;SDS011;60547;48.502;8.996;2022-12-11T09:20:04;19.83;;;9.73;;
72524;SDS011;60547;48.502;8.996;2022-12-11T09:22:31;18.88;;;8.95;;
72524;SDS011;60547;48.502;8.996;2022-12-11T09:24:57;17.40;;;8.38;;
72524;SDS011;60547;48.502;8.996;2022-12-11T09:27:23;18.98;;;9.15;;
72524;SDS011;60547;48.502;8.996;2022-12-11T09:29:49;17.35;;;8.48;;
72524;SDS011;60547;48.502;8.996;2022-12-11T09:32:15;16.65;;;8.23;;
72524;SDS011;60547;48.502;8.996;2022-12-11T09:34:41;17.70;;;8.43;;
72524;SDS011;60547;48.502;8.996;2022-12-11T09:37:06;19.55;;;9.63;;
72524;SDS011;60547;48.502;8.996;2022-12-11T09:39:32;17.90;;;9.52;;
72524;SDS011;60547;48.502;8.996;2022-12-11T09:44:37;17.05;;;8.00;;
72524;SDS011;60547;48.502;8.996;2022-12-11T09:49:58;19.30;;;9.48;;
72524;SDS011;60547;48.502;8.996;2022-12-11T09:52:31;18.15;;;8.20;;
72524;SDS011;60547;48.502;8.996;2022-12-11T09:55:03;16.75;;;8.80;;
72524;SDS011;60547;48.502;8.996;2022-12-11T10:03:10;18.80;;;9.77;;
72524;SDS011;60547;48.502;8.996;2022-12-11T10:16:57;18.85;;;9.55;;
72524;SDS011;60547;48.502;8.996;2022-12-11T10:19:30;17.85;;;9.52;;
72524;SDS011;60547;48.502;8.996;2022-12-11T10:21:56;15.23;;;8.65;;
72524;SDS011;60547;48.502;8.996;2022-12-11T10:27:14;20.60;;;8.90;;
72524;SDS011;60547;48.502;8.996;2022-12-11T10:29:43;19.05;;;9.63;;
72524;SDS011;60547;48.502;8.996;2022-12-11T10:32:15;19.88;;;9.95;;
72524;SDS011;60547;48.502;8.996;2022-12-11T10:35:00;20.20;;;9.52;;
72524;SDS011;60547;48.502;8.996;2022-12-11T10:37:29;21.65;;;9.70;;
72524;SDS011;60547;48.502;8.996;2022-12-11T10:39:54;18.65;;;9.50;;
72524;SDS011;60547;48.502;8.996;2022-12-11T10:42:20;17.23;;;9.27;;
72524;SDS011;60547;48.502;8.996;2022-12-11T10:45:20;16.80;;;8.45;;
72524;SDS011;60547;48.502;8.996;2022-12-11T10:47:42;18.25;;;8.77;;
72524;SDS011;60547;48.502;8.996;2022-12-11T10:50:20;16.73;;;10.15;;
72524;SDS011;60547;48.502;8.996;2022-12-11T10:52:48;19.55;;;9.75;;
72524;SDS011;60547;48.502;8.996;2022-12-11T10:55:24;18.52;;;10.13;;
72524;SDS011;60547;48.502;8.996;2022-12-11T10:58:02;17.15;;;8.35;;
72524;SDS011;60547;48.502;8.996;2022-12-11T11:00:32;20.63;;;9.40;;
72524;SDS011;60547;48.502;8.996;2022-12-11T11:03:01;17.38;;;9.70;;
72524;SDS011;60547;48.502;8.996;2022-12-11T11:05:31;15.80;;;8.10;;
72524;SDS011;60547;48.502;8.996;2022-12-11T11:08:03;18.40;;;8.68;;
72524;SDS011;60547;48.502;8.996;2022-12-11T11:10:34;19.80;;;9.32;;
72524;SDS011;60547;48.502;8.996;2022-12-11T11:13:00;16.73;;;8.85;;
72524;SDS011;60547;48.502;8.996;2022-12-11T11:15:27;18.15;;;9.13;;
72524;SDS011;60547;48.502;8.996;2022-12-11T11:17:55;20.80;;;10.48;;
72524;SDS011;60547;48.502;8.996;2022-12-11T11:20:28;16.70;;;8.98;;
72524;SDS011;60547;48.502;8.996;2022-12-11T11:23:02;16.83;;;8.90;;
72524;SDS011;60547;48.502;8.996;2022-12-11T11:25:35;17.25;;;8.98;;
72524;SDS011;60547;48.502;8.996;2022-12-11T11:28:04;16.90;;;8.70;;
72524;SDS011;60547;48.502;8.996;2022-12-11T11:30:36;18.65;;;9.18;;
72524;SDS011;60547;48.502;8.996;2022-12-11T11:33:15;17.00;;;8.88;;
72524;SDS011;60547;48.502;8.996;2022-12-11T11:35:54;15.65;;;8.43;;
72524;SDS011;60547;48.502;8.996;2022-12-11T11:38:22;17.92;;;8.25;;
72524;SDS011;60547;48.502;8.996;2022-12-11T11:43:52;16.08;;;8.32;;
72524;SDS011;60547;48.502;8.996;2022-12-11T11:46:22;16.13;;;8.60;;
72524;SDS011;60547;48.502;8.996;2022-12-11T11:51:36;16.08;;;8.63;;
72524;SDS011;60547;48.502;8.996;2022-12-11T11:54:08;16.63;;;7.90;;
72524;SDS011;60547;48.502;8.996;2022-12-11T11:56:45;15.40;;;8.48;;
72524;SDS011;60547;48.502;8.996;2022-12-11T12:02:33;16.58;;;7.95;;
72524;SDS011;60547;48.502;8.996;2022-12-11T12:04:59;17.05;;;8.73;;
72524;SDS011;60547;48.502;8.996;2022-12-11T12:07:31;15.20;;;8.25;;
72524;SDS011;60547;48.502;8.996;2022-12-11T12:13:02;18.08;;;8.93;;
72524;SDS011;60547;48.502;8.996;2022-12-11T12:21:18;18.15;;;8.43;;
72524;SDS011;60547;48.502;8.996;2022-12-11T12:29:46;15.23;;;7.50;;
72524;SDS011;60547;48.502;8.996;2022-12-11T12:32:31;12.45;;;6.93;;
72524;SDS011;60547;48.502;8.996;2022-12-11T12:38:14;13.90;;;6.95;;
72524;SDS011;60547;48.502;8.996;2022-12-11T12:43:41;16.15;;;7.65;;
72524;SDS011;60547;48.502;8.996;2022-12-11T12:46:22;16.90;;;8.02;;
72524;SDS011;60547;48.502;8.996;2022-12-11T12:48:51;14.07;;;7.40;;
72524;SDS011;60547;48.502;8.996;2022-12-11T12:51:21;16.20;;;8.27;;
72524;SDS011;60547;48.502;8.996;2022-12-11T12:53:51;14.13;;;7.90;;
72524;SDS011;60547;48.502;8.996;2022-12-11T12:56:19;17.60;;;8.13;;
72524;SDS011;60547;48.502;8.996;2022-12-11T12:58:46;14.18;;;6.90;;
72524;SDS011;60547;48.502;8.996;2022-12-11T13:11:42;17.15;;;8.68;;
72524;SDS011;60547;48.502;8.996;2022-12-11T13:16:43;15.10;;;8.88;;
72524;SDS011;60547;48.502;8.996;2022-12-11T13:21:57;17.08;;;8.43;;
72524;SDS011;60547;48.502;8.996;2022-12-11T13:24:35;13.40;;;7.85;;
72524;SDS011;60547;48.502;8.996;2022-12-11T13:27:22;15.25;;;7.78;;
72524;SDS011;60547;48.502;8.996;2022-12-11T13:35:31;12.63;;;7.50;;
72524;SDS011;60547;48.502;8.996;2022-12-11T13:38:00;15.48;;;7.70;;
72524;SDS011;60547;48.502;8.996;2022-12-11T13:40:36;14.18;;;7.38;;
72524;SDS011;60547;48.502;8.996;2022-12-11T13:43:05;15.43;;;6.95;;
72524;SDS011;60547;48.502;8.996;2022-12-11T13:51:05;14.35;;;7.25;;
72524;SDS011;60547;48.502;8.996;2022-12-11T13:53:31;13.95;;;7.13;;
72524;SDS011;60547;48.502;8.996;2022-12-11T13:56:01;15.90;;;8.35;;
72524;SDS011;60547;48.502;8.996;2022-12-11T13:58:32;18.92;;;9.43;;
72524;SDS011;60547;48.502;8.996;2022-12-11T14:01:21;18.35;;;10.15;;
72524;SDS011;60547;48.502;8.996;2022-12-11T14:03:56;14.70;;;8.23;;
72524;SDS011;60547;48.502;8.996;2022-12-11T14:06:25;20.02;;;10.40;;
72524;SDS011;60547;48.502;8.996;2022-12-11T14:08:53;17.92;;;10.20;;
72524;SDS011;60547;48.502;8.996;2022-12-11T14:11:22;11.10;;;6.38;;
72524;SDS011;60547;48.502;8.996;2022-12-11T14:13:52;14.07;;;7.80;;
72524;SDS011;60547;48.502;8.996;2022-12-11T14:16:22;11.52;;;6.85;;
72524;SDS011;60547;48.502;8.996;2022-12-11T14:18:50;14.07;;;7.05;;
72524;SDS011;60547;48.502;8.996;2022-12-11T14:21:20;14.77;;;7.05;;
72524;SDS011;60547;48.502;8.996;2022-12-11T14:23:56;14.27;;;6.90;;
72524;SDS011;60547;48.502;8.996;2022-12-11T14:26:33;14.13;;;8.02;;
72524;SDS011;60547;48.502;8.996;2022-12-11T14:29:02;17.75;;;7.43;;
72524;SDS011;60547;48.502;8.996;2022-12-11T14:31:33;13.75;;;7.32;;
72524;SDS011;60547;48.502;8.996;2022-12-11T14:36:37;14.70;;;7.10;;
72524;SDS011;60547;48.502;8.996;2022-12-11T14:39:27;14.65;;;7.45;;
72524;SDS011;60547;48.502;8.996;2022-12-11T14:44:29;18.42;;;8.68;;
72524;SDS011;60547;48.502;8.996;2022-12-11T14:47:02;20.20;;;9.95;;
72524;SDS011;60547;48.502;8.996;2022-12-11T14:49:39;16.17;;;8.88;;
72524;SDS011;60547;48.502;8.996;2022-12-11T14:52:12;17.45;;;8.65;;
72524;SDS011;60547;48.502;8.996;2022-12-11T14:54:43;15.35;;;7.90;;
72524;SDS011;60547;48.502;8.996;2022-12-11T14:57:17;14.98;;;6.95;;
72524;SDS011;60547;48.502;8.996;2022-12-11T14:59:45;13.07;;;8.00;;
72524;SDS011;60547;48.502;8.996;2022-12-11T15:02:21;12.55;;;6.90;;
72524;SDS011;60547;48.502;8.996;2022-12-11T15:07:35;14.48;;;7.85;;
72524;SDS011;60547;48.502;8.996;2022-12-11T15:10:00;14.38;;;8.18;;
72524;SDS011;60547;48.502;8.996;2022-12-11T15:12:26;18.48;;;8.52;;
72524;SDS011;60547;48.502;8.996;2022-12-11T15:14:53;14.15;;;8.00;;
72524;SDS011;60547;48.502;8.996;2022-12-11T15:17:21;16.20;;;8.45;;
72524;SDS011;60547;48.502;8.996;2022-12-11T15:19:49;15.48;;;8.43;;
72524;SDS011;60547;48.502;8.996;2022-12-11T15:22:18;16.48;;;8.98;;
72524;SDS011;60547;48.502;8.996;2022-12-11T15:24:50;13.85;;;7.65;;
72524;SDS011;60547;48.502;8.996;2022-12-11T15:29:56;15.90;;;7.80;;
72524;SDS011;60547;48.502;8.996;2022-12-11T15:32:22;17.38;;;8.95;;
72524;SDS011;60547;48.502;8.996;2022-12-11T15:34:50;17.25;;;9.45;;
72524;SDS011;60547;48.502;8.996;2022-12-11T15:37:16;16.48;;;9.68;;
72524;SDS011;60547;48.502;8.996;2022-12-11T15:39:56;15.80;;;9.52;;
72524;SDS011;60547;48.502;8.996;2022-12-11T15:45:06;20.02;;;9.60;;
72524;SDS011;60547;48.502;8.996;2022-12-11T15:47:38;19.08;;;11.35;;
72524;SDS011;60547;48.502;8.996;2022-12-11T15:52:41;27.30;;;10.75;;
72524;SDS011;60547;48.502;8.996;2022-12-11T15:55:06;18.30;;;9.20;;
72524;SDS011;60547;48.502;8.996;2022-12-11T15:57:32;19.75;;;9.98;;
72524;SDS011;60547;48.502;8.996;2022-12-11T15:59:58;18.77;;;9.38;;
72524;SDS011;60547;48.502;8.996;2022-12-11T16:02:24;16.95;;;9.13;;
72524;SDS011;60547;48.502;8.996;2022-12-11T16:04:51;16.23;;;9.77;;
72524;SDS011;60547;48.502;8.996;2022-12-11T16:07:18;19.20;;;10.02;;
72524;SDS011;60547;48.502;8.996;2022-12-11T16:09:45;21.77;;;10.65;;
72524;SDS011;60547;48.502;8.996;2022-12-11T16:12:10;21.58;;;11.13;;
72524;SDS011;60547;48.502;8.996;2022-12-11T16:14:38;19.42;;;9.95;;
72524;SDS011;60547;48.502;8.996;2022-12-11T16:17:04;17.88;;;10.60;;
72524;SDS011;60547;48.502;8.996;2022-12-11T16:19:31;19.20;;;11.50;;
72524;SDS011;60547;48.502;8.996;2022-12-11T16:21:57;22.10;;;12.57;;
72524;SDS011;60547;48.502;8.996;2022-12-11T16:24:22;18.35;;;10.38;;
72524;SDS011;60547;48.502;8.996;2022-12-11T16:26:48;18.77;;;9.95;;
72524;SDS011;60547;48.502;8.996;2022-12-11T16:29:13;18.25;;;9.98;;
72524;SDS011;60547;48.502;8.996;2022-12-11T16:31:39;19.17;;;11.10;;
72524;SDS011;60547;48.502;8.996;2022-12-11T16:34:04;22.08;;;10.75;;
72524;SDS011;60547;48.502;8.996;2022-12-11T16:36:30;21.73;;;10.88;;
72524;SDS011;60547;48.502;8.996;2022-12-11T16:38:55;19.95;;;9.98;;